sensor_id;sensor_type;location;lat;lon;timestamp;P1;durP1;ratioP1;P2;durP2;ratioP2
13147;SDS011;6639;50.956;4.242;2023-07-31T00:01:21;6.88;;;4.03;;
13147;SDS011;6639;50.956;4.242;2023-07-31T00:03:49;10.32;;;5.22;;
13147;SDS011;6639;50.956;4.242;2023-07-31T00:06:16;10.07;;;4.07;;
13147;SDS011;6639;50.956;4.242;2023-07-31T00:08:43;9.48;;;5.40;;
13147;SDS011;6639;50.956;4.242;2023-07-31T00:11:11;9.23;;;4.22;;
13147;SDS011;6639;50.956;4.242;2023-07-31T00:13:38;13.77;;;4.95;;
13147;SDS011;6639;50.956;4.242;2023-07-31T00:16:05;10.57;;;4.93;;
13147;SDS011;6639;50.956;4.242;2023-07-31T00:18:32;9.82;;;4.93;;
13147;SDS011;6639;50.956;4.242;2023-07-31T00:20:59;11.00;;;5.22;;
13147;SDS011;6639;50.956;4.242;2023-07-31T00:23:26;12.85;;;4.95;;
13147;SDS011;6639;50.956;4.242;2023-07-31T00:25:53;7.85;;;4.32;;
13147;SDS011;6639;50.956;4.242;2023-07-31T00:28:21;11.65;;;5.15;;
13147;SDS011;6639;50.956;4.242;2023-07-31T00:30:48;18.38;;;4.53;;
13147;SDS011;6639;50.956;4.242;2023-07-31T00:33:15;9.95;;;4.78;;
13147;SDS011;6639;50.956;4.242;2023-07-31T00:35:42;6.93;;;4.47;;
13147;SDS011;6639;50.956;4.242;2023-07-31T00:38:09;6.78;;;4.53;;
13147;SDS011;6639;50.956;4.242;2023-07-31T00:40:36;10.50;;;4.97;;
13147;SDS011;6639;50.956;4.242;2023-07-31T00:43:03;9.15;;;5.00;;
13147;SDS011;6639;50.956;4.242;2023-07-31T00:45:31;10.32;;;5.28;;
13147;SDS011;6639;50.956;4.242;2023-07-31T00:47:59;8.10;;;4.53;;
13147;SDS011;6639;50.956;4.242;2023-07-31T00:50:26;12.23;;;4.65;;
13147;SDS011;6639;50.956;4.242;2023-07-31T00:52:54;8.32;;;4.30;;
13147;SDS011;6639;50.956;4.242;2023-07-31T00:55:21;10.63;;;4.75;;
13147;SDS011;6639;50.956;4.242;2023-07-31T00:57:48;10.95;;;4.10;;
13147;SDS011;6639;50.956;4.242;2023-07-31T01:00:16;10.60;;;4.68;;
13147;SDS011;6639;50.956;4.242;2023-07-31T01:02:45;8.95;;;4.78;;
13147;SDS011;6639;50.956;4.242;2023-07-31T01:05:12;13.38;;;4.93;;
13147;SDS011;6639;50.956;4.242;2023-07-31T01:07:40;15.00;;;4.80;;
13147;SDS011;6639;50.956;4.242;2023-07-31T01:10:26;8.18;;;4.63;;
13147;SDS011;6639;50.956;4.242;2023-07-31T01:13:00;8.07;;;4.78;;
13147;SDS011;6639;50.956;4.242;2023-07-31T01:15:29;10.38;;;4.75;;
13147;SDS011;6639;50.956;4.242;2023-07-31T01:17:57;10.52;;;4.90;;
13147;SDS011;6639;50.956;4.242;2023-07-31T01:20:24;9.80;;;4.97;;
13147;SDS011;6639;50.956;4.242;2023-07-31T01:25:56;6.28;;;4.40;;
13147;SDS011;6639;50.956;4.242;2023-07-31T01:28:33;8.70;;;4.47;;
13147;SDS011;6639;50.956;4.242;2023-07-31T01:31:10;10.30;;;4.55;;
13147;SDS011;6639;50.956;4.242;2023-07-31T01:33:41;7.85;;;3.95;;
13147;SDS011;6639;50.956;4.242;2023-07-31T01:36:08;9.52;;;5.05;;
13147;SDS011;6639;50.956;4.242;2023-07-31T01:38:36;7.38;;;4.63;;
13147;SDS011;6639;50.956;4.242;2023-07-31T01:41:04;7.95;;;4.55;;
13147;SDS011;6639;50.956;4.242;2023-07-31T01:43:31;11.13;;;4.55;;
13147;SDS011;6639;50.956;4.242;2023-07-31T01:45:58;8.52;;;4.32;;
13147;SDS011;6639;50.956;4.242;2023-07-31T01:48:25;7.50;;;4.35;;
13147;SDS011;6639;50.956;4.242;2023-07-31T01:50:52;8.98;;;4.40;;
13147;SDS011;6639;50.956;4.242;2023-07-31T01:53:19;10.38;;;4.55;;
13147;SDS011;6639;50.956;4.242;2023-07-31T01:55:46;7.40;;;4.40;;
13147;SDS011;6639;50.956;4.242;2023-07-31T01:58:14;8.82;;;4.30;;
13147;SDS011;6639;50.956;4.242;2023-07-31T02:00:41;8.23;;;3.92;;
13147;SDS011;6639;50.956;4.242;2023-07-31T02:03:08;7.75;;;4.10;;
13147;SDS011;6639;50.956;4.242;2023-07-31T02:05:34;11.10;;;5.25;;
13147;SDS011;6639;50.956;4.242;2023-07-31T02:08:01;6.80;;;4.40;;
13147;SDS011;6639;50.956;4.242;2023-07-31T02:10:28;9.98;;;4.35;;
13147;SDS011;6639;50.956;4.242;2023-07-31T02:12:55;9.63;;;4.50;;
13147;SDS011;6639;50.956;4.242;2023-07-31T02:15:24;11.02;;;4.28;;
13147;SDS011;6639;50.956;4.242;2023-07-31T02:17:51;7.93;;;4.43;;
13147;SDS011;6639;50.956;4.242;2023-07-31T02:20:17;11.85;;;5.22;;
13147;SDS011;6639;50.956;4.242;2023-07-31T02:22:44;9.60;;;5.20;;
13147;SDS011;6639;50.956;4.242;2023-07-31T02:25:11;10.18;;;5.25;;
13147;SDS011;6639;50.956;4.242;2023-07-31T02:27:38;10.02;;;4.47;;
13147;SDS011;6639;50.956;4.242;2023-07-31T02:30:06;7.63;;;4.80;;
13147;SDS011;6639;50.956;4.242;2023-07-31T02:32:35;6.10;;;4.30;;
13147;SDS011;6639;50.956;4.242;2023-07-31T02:35:02;12.30;;;4.28;;
13147;SDS011;6639;50.956;4.242;2023-07-31T02:37:30;10.50;;;5.00;;
13147;SDS011;6639;50.956;4.242;2023-07-31T02:39:56;14.02;;;4.93;;
13147;SDS011;6639;50.956;4.242;2023-07-31T02:42:23;9.13;;;4.68;;
13147;SDS011;6639;50.956;4.242;2023-07-31T02:44:50;9.55;;;4.93;;
13147;SDS011;6639;50.956;4.242;2023-07-31T02:47:20;7.30;;;4.47;;
13147;SDS011;6639;50.956;4.242;2023-07-31T02:49:49;9.27;;;5.13;;
13147;SDS011;6639;50.956;4.242;2023-07-31T02:52:16;9.95;;;4.90;;
13147;SDS011;6639;50.956;4.242;2023-07-31T02:54:43;10.15;;;4.93;;
13147;SDS011;6639;50.956;4.242;2023-07-31T02:57:10;7.57;;;4.90;;
13147;SDS011;6639;50.956;4.242;2023-07-31T02:59:37;7.60;;;5.18;;
13147;SDS011;6639;50.956;4.242;2023-07-31T03:02:03;9.32;;;5.25;;
13147;SDS011;6639;50.956;4.242;2023-07-31T03:04:30;5.97;;;4.30;;
13147;SDS011;6639;50.956;4.242;2023-07-31T03:06:59;6.15;;;4.85;;
13147;SDS011;6639;50.956;4.242;2023-07-31T03:09:26;8.82;;;4.88;;
13147;SDS011;6639;50.956;4.242;2023-07-31T03:11:52;8.50;;;5.07;;
13147;SDS011;6639;50.956;4.242;2023-07-31T03:14:19;10.63;;;4.90;;
13147;SDS011;6639;50.956;4.242;2023-07-31T03:16:47;7.53;;;4.90;;
13147;SDS011;6639;50.956;4.242;2023-07-31T03:19:14;8.27;;;4.47;;
13147;SDS011;6639;50.956;4.242;2023-07-31T03:21:41;8.07;;;4.95;;
13147;SDS011;6639;50.956;4.242;2023-07-31T03:24:09;5.50;;;3.90;;
13147;SDS011;6639;50.956;4.242;2023-07-31T03:26:37;4.53;;;4.03;;
13147;SDS011;6639;50.956;4.242;2023-07-31T03:29:06;4.68;;;3.83;;
13147;SDS011;6639;50.956;4.242;2023-07-31T03:31:33;5.95;;;4.35;;
13147;SDS011;6639;50.956;4.242;2023-07-31T03:34:00;5.75;;;4.55;;
13147;SDS011;6639;50.956;4.242;2023-07-31T03:36:27;5.50;;;4.30;;
13147;SDS011;6639;50.956;4.242;2023-07-31T03:38:54;8.35;;;4.82;;
13147;SDS011;6639;50.956;4.242;2023-07-31T03:41:22;4.18;;;3.78;;
13147;SDS011;6639;50.956;4.242;2023-07-31T03:43:49;5.70;;;3.85;;
13147;SDS011;6639;50.956;4.242;2023-07-31T03:46:18;5.30;;;4.22;;
13147;SDS011;6639;50.956;4.242;2023-07-31T03:48:45;5.25;;;3.90;;
13147;SDS011;6639;50.956;4.242;2023-07-31T03:51:11;8.30;;;3.67;;
13147;SDS011;6639;50.956;4.242;2023-07-31T03:53:38;6.00;;;3.70;;
13147;SDS011;6639;50.956;4.242;2023-07-31T03:56:05;7.32;;;4.57;;
13147;SDS011;6639;50.956;4.242;2023-07-31T03:58:34;4.55;;;3.67;;
13147;SDS011;6639;50.956;4.242;2023-07-31T04:01:02;5.93;;;3.35;;
13147;SDS011;6639;50.956;4.242;2023-07-31T04:03:29;8.40;;;4.15;;
13147;SDS011;6639;50.956;4.242;2023-07-31T04:05:56;4.00;;;3.38;;
13147;SDS011;6639;50.956;4.242;2023-07-31T04:08:23;6.80;;;3.70;;
13147;SDS011;6639;50.956;4.242;2023-07-31T04:10:50;4.75;;;4.00;;
13147;SDS011;6639;50.956;4.242;2023-07-31T04:13:17;3.88;;;3.38;;
13147;SDS011;6639;50.956;4.242;2023-07-31T04:15:49;5.80;;;3.70;;
13147;SDS011;6639;50.956;4.242;2023-07-31T04:18:16;5.75;;;3.92;;
13147;SDS011;6639;50.956;4.242;2023-07-31T04:20:43;4.85;;;3.97;;
13147;SDS011;6639;50.956;4.242;2023-07-31T04:23:10;6.05;;;4.53;;
13147;SDS011;6639;50.956;4.242;2023-07-31T04:25:37;5.13;;;3.53;;
13147;SDS011;6639;50.956;4.242;2023-07-31T04:28:04;6.32;;;4.15;;
13147;SDS011;6639;50.956;4.242;2023-07-31T04:30:31;5.10;;;4.47;;
13147;SDS011;6639;50.956;4.242;2023-07-31T04:32:59;5.28;;;3.80;;
13147;SDS011;6639;50.956;4.242;2023-07-31T04:35:27;5.80;;;3.85;;
13147;SDS011;6639;50.956;4.242;2023-07-31T04:37:54;6.30;;;4.55;;
13147;SDS011;6639;50.956;4.242;2023-07-31T04:40:21;8.82;;;4.65;;
13147;SDS011;6639;50.956;4.242;2023-07-31T04:42:47;5.43;;;3.92;;
13147;SDS011;6639;50.956;4.242;2023-07-31T04:45:14;7.20;;;4.38;;
13147;SDS011;6639;50.956;4.242;2023-07-31T04:47:41;5.25;;;4.38;;
13147;SDS011;6639;50.956;4.242;2023-07-31T04:50:10;5.00;;;4.50;;
13147;SDS011;6639;50.956;4.242;2023-07-31T04:52:37;5.07;;;4.45;;
13147;SDS011;6639;50.956;4.242;2023-07-31T04:55:04;7.63;;;4.82;;
13147;SDS011;6639;50.956;4.242;2023-07-31T04:57:31;6.15;;;4.50;;
13147;SDS011;6639;50.956;4.242;2023-07-31T04:59:58;6.50;;;4.35;;
13147;SDS011;6639;50.956;4.242;2023-07-31T05:02:24;5.93;;;3.72;;
13147;SDS011;6639;50.956;4.242;2023-07-31T05:04:51;5.60;;;3.90;;
13147;SDS011;6639;50.956;4.242;2023-07-31T05:07:20;7.30;;;3.55;;
13147;SDS011;6639;50.956;4.242;2023-07-31T05:09:46;7.60;;;4.43;;
13147;SDS011;6639;50.956;4.242;2023-07-31T05:12:13;5.20;;;3.95;;
13147;SDS011;6639;50.956;4.242;2023-07-31T05:14:40;5.43;;;4.47;;
13147;SDS011;6639;50.956;4.242;2023-07-31T05:17:07;4.63;;;3.95;;
13147;SDS011;6639;50.956;4.242;2023-07-31T05:19:34;5.47;;;4.35;;
13147;SDS011;6639;50.956;4.242;2023-07-31T05:22:01;5.28;;;4.40;;
13147;SDS011;6639;50.956;4.242;2023-07-31T05:24:29;7.47;;;3.85;;
13147;SDS011;6639;50.956;4.242;2023-07-31T05:26:56;5.32;;;4.55;;
13147;SDS011;6639;50.956;4.242;2023-07-31T05:29:23;8.93;;;4.60;;
13147;SDS011;6639;50.956;4.242;2023-07-31T05:31:50;7.63;;;4.25;;
13147;SDS011;6639;50.956;4.242;2023-07-31T05:34:17;4.93;;;4.13;;
13147;SDS011;6639;50.956;4.242;2023-07-31T05:36:44;8.40;;;5.22;;
13147;SDS011;6639;50.956;4.242;2023-07-31T05:39:11;7.15;;;4.72;;
13147;SDS011;6639;50.956;4.242;2023-07-31T05:41:39;5.65;;;3.70;;
13147;SDS011;6639;50.956;4.242;2023-07-31T05:44:06;6.20;;;4.13;;
13147;SDS011;6639;50.956;4.242;2023-07-31T05:46:33;4.53;;;3.85;;
13147;SDS011;6639;50.956;4.242;2023-07-31T05:49:00;7.00;;;4.45;;
13147;SDS011;6639;50.956;4.242;2023-07-31T05:51:27;6.10;;;3.90;;
13147;SDS011;6639;50.956;4.242;2023-07-31T05:53:54;5.47;;;4.43;;
13147;SDS011;6639;50.956;4.242;2023-07-31T05:56:21;5.35;;;4.13;;
13147;SDS011;6639;50.956;4.242;2023-07-31T05:58:50;6.25;;;4.05;;
13147;SDS011;6639;50.956;4.242;2023-07-31T06:01:17;7.68;;;4.30;;
13147;SDS011;6639;50.956;4.242;2023-07-31T06:03:44;7.03;;;4.18;;
13147;SDS011;6639;50.956;4.242;2023-07-31T06:06:11;6.93;;;4.13;;
13147;SDS011;6639;50.956;4.242;2023-07-31T06:08:38;4.85;;;3.65;;
13147;SDS011;6639;50.956;4.242;2023-07-31T06:11:06;4.75;;;3.92;;
13147;SDS011;6639;50.956;4.242;2023-07-31T06:13:34;6.65;;;4.32;;
13147;SDS011;6639;50.956;4.242;2023-07-31T06:16:02;4.60;;;3.50;;
13147;SDS011;6639;50.956;4.242;2023-07-31T06:18:31;4.93;;;4.03;;
13147;SDS011;6639;50.956;4.242;2023-07-31T06:20:58;5.72;;;4.00;;
13147;SDS011;6639;50.956;4.242;2023-07-31T06:23:25;7.05;;;3.97;;
13147;SDS011;6639;50.956;4.242;2023-07-31T06:25:52;4.65;;;3.67;;
13147;SDS011;6639;50.956;4.242;2023-07-31T06:28:19;5.63;;;3.42;;
13147;SDS011;6639;50.956;4.242;2023-07-31T06:30:46;6.88;;;3.47;;
13147;SDS011;6639;50.956;4.242;2023-07-31T06:33:14;4.80;;;3.33;;
13147;SDS011;6639;50.956;4.242;2023-07-31T06:35:41;8.38;;;3.97;;
13147;SDS011;6639;50.956;4.242;2023-07-31T06:38:08;5.03;;;3.28;;
13147;SDS011;6639;50.956;4.242;2023-07-31T06:40:35;5.68;;;3.55;;
13147;SDS011;6639;50.956;4.242;2023-07-31T06:43:02;4.35;;;3.38;;
13147;SDS011;6639;50.956;4.242;2023-07-31T06:45:33;4.72;;;4.07;;
13147;SDS011;6639;50.956;4.242;2023-07-31T06:48:00;6.05;;;3.50;;
13147;SDS011;6639;50.956;4.242;2023-07-31T06:50:29;4.85;;;3.45;;
13147;SDS011;6639;50.956;4.242;2023-07-31T06:52:56;5.20;;;3.78;;
13147;SDS011;6639;50.956;4.242;2023-07-31T06:55:24;5.65;;;3.55;;
13147;SDS011;6639;50.956;4.242;2023-07-31T06:57:52;4.10;;;2.97;;
13147;SDS011;6639;50.956;4.242;2023-07-31T07:00:20;5.63;;;3.55;;
13147;SDS011;6639;50.956;4.242;2023-07-31T07:02:48;5.15;;;3.40;;
13147;SDS011;6639;50.956;4.242;2023-07-31T07:05:15;4.50;;;3.83;;
13147;SDS011;6639;50.956;4.242;2023-07-31T07:07:44;7.57;;;3.47;;
13147;SDS011;6639;50.956;4.242;2023-07-31T07:10:11;6.07;;;3.17;;
13147;SDS011;6639;50.956;4.242;2023-07-31T07:12:38;4.97;;;3.55;;
13147;SDS011;6639;50.956;4.242;2023-07-31T07:15:06;8.27;;;3.58;;
13147;SDS011;6639;50.956;4.242;2023-07-31T07:17:33;3.70;;;2.72;;
13147;SDS011;6639;50.956;4.242;2023-07-31T07:20:00;7.50;;;4.35;;
13147;SDS011;6639;50.956;4.242;2023-07-31T07:22:28;5.03;;;3.60;;
13147;SDS011;6639;50.956;4.242;2023-07-31T07:24:57;4.00;;;2.80;;
13147;SDS011;6639;50.956;4.242;2023-07-31T07:27:24;4.28;;;3.20;;
13147;SDS011;6639;50.956;4.242;2023-07-31T07:29:51;6.05;;;3.20;;
13147;SDS011;6639;50.956;4.242;2023-07-31T07:32:18;4.90;;;3.10;;
13147;SDS011;6639;50.956;4.242;2023-07-31T07:34:47;7.50;;;3.55;;
13147;SDS011;6639;50.956;4.242;2023-07-31T07:37:14;7.70;;;3.67;;
13147;SDS011;6639;50.956;4.242;2023-07-31T07:39:42;5.68;;;3.72;;
13147;SDS011;6639;50.956;4.242;2023-07-31T07:42:10;7.93;;;3.80;;
13147;SDS011;6639;50.956;4.242;2023-07-31T07:44:37;3.75;;;3.22;;
13147;SDS011;6639;50.956;4.242;2023-07-31T07:47:04;3.70;;;3.28;;
13147;SDS011;6639;50.956;4.242;2023-07-31T07:49:32;5.70;;;3.10;;
13147;SDS011;6639;50.956;4.242;2023-07-31T07:51:59;7.68;;;3.17;;
13147;SDS011;6639;50.956;4.242;2023-07-31T07:54:26;4.18;;;3.00;;
13147;SDS011;6639;50.956;4.242;2023-07-31T07:56:53;3.80;;;3.25;;
13147;SDS011;6639;50.956;4.242;2023-07-31T07:59:22;4.53;;;2.80;;
13147;SDS011;6639;50.956;4.242;2023-07-31T08:01:48;6.15;;;2.97;;
13147;SDS011;6639;50.956;4.242;2023-07-31T08:04:15;4.90;;;3.10;;
13147;SDS011;6639;50.956;4.242;2023-07-31T08:06:42;5.13;;;3.20;;
13147;SDS011;6639;50.956;4.242;2023-07-31T08:09:09;6.07;;;3.15;;
13147;SDS011;6639;50.956;4.242;2023-07-31T08:11:36;4.10;;;2.95;;
13147;SDS011;6639;50.956;4.242;2023-07-31T08:14:03;3.03;;;2.72;;
13147;SDS011;6639;50.956;4.242;2023-07-31T08:16:31;5.47;;;3.25;;
13147;SDS011;6639;50.956;4.242;2023-07-31T08:18:58;5.18;;;3.83;;
13147;SDS011;6639;50.956;4.242;2023-07-31T08:21:25;4.32;;;3.40;;
13147;SDS011;6639;50.956;4.242;2023-07-31T08:23:52;3.53;;;2.67;;
13147;SDS011;6639;50.956;4.242;2023-07-31T08:26:20;3.58;;;3.00;;
13147;SDS011;6639;50.956;4.242;2023-07-31T08:28:47;4.82;;;3.13;;
13147;SDS011;6639;50.956;4.242;2023-07-31T08:31:14;4.82;;;3.05;;
13147;SDS011;6639;50.956;4.242;2023-07-31T08:33:43;4.18;;;3.00;;
13147;SDS011;6639;50.956;4.242;2023-07-31T08:36:10;4.85;;;2.45;;
13147;SDS011;6639;50.956;4.242;2023-07-31T08:38:37;6.50;;;3.67;;
13147;SDS011;6639;50.956;4.242;2023-07-31T08:41:04;4.05;;;3.20;;
13147;SDS011;6639;50.956;4.242;2023-07-31T08:43:30;4.25;;;2.97;;
13147;SDS011;6639;50.956;4.242;2023-07-31T08:45:58;4.00;;;3.58;;
13147;SDS011;6639;50.956;4.242;2023-07-31T08:48:25;5.50;;;2.95;;
13147;SDS011;6639;50.956;4.242;2023-07-31T08:50:55;4.78;;;3.25;;
13147;SDS011;6639;50.956;4.242;2023-07-31T08:53:22;4.65;;;3.47;;
13147;SDS011;6639;50.956;4.242;2023-07-31T08:55:49;4.05;;;2.70;;
13147;SDS011;6639;50.956;4.242;2023-07-31T08:58:18;4.80;;;3.08;;
13147;SDS011;6639;50.956;4.242;2023-07-31T09:00:46;4.13;;;2.75;;
13147;SDS011;6639;50.956;4.242;2023-07-31T09:03:13;4.75;;;3.63;;
13147;SDS011;6639;50.956;4.242;2023-07-31T09:05:42;6.30;;;3.47;;
13147;SDS011;6639;50.956;4.242;2023-07-31T09:08:12;4.93;;;3.08;;
13147;SDS011;6639;50.956;4.242;2023-07-31T09:10:40;4.53;;;3.38;;
13147;SDS011;6639;50.956;4.242;2023-07-31T09:13:08;5.28;;;3.17;;
13147;SDS011;6639;50.956;4.242;2023-07-31T09:15:36;4.47;;;3.05;;
13147;SDS011;6639;50.956;4.242;2023-07-31T09:18:03;5.65;;;3.63;;
13147;SDS011;6639;50.956;4.242;2023-07-31T09:20:31;5.93;;;3.05;;
13147;SDS011;6639;50.956;4.242;2023-07-31T09:23:04;5.95;;;4.07;;
13147;SDS011;6639;50.956;4.242;2023-07-31T09:25:35;3.47;;;2.97;;
13147;SDS011;6639;50.956;4.242;2023-07-31T09:28:03;3.67;;;3.00;;
13147;SDS011;6639;50.956;4.242;2023-07-31T09:30:31;6.03;;;3.35;;
13147;SDS011;6639;50.956;4.242;2023-07-31T09:33:09;6.10;;;3.67;;
13147;SDS011;6639;50.956;4.242;2023-07-31T09:35:36;5.97;;;3.47;;
13147;SDS011;6639;50.956;4.242;2023-07-31T09:38:06;3.70;;;3.28;;
13147;SDS011;6639;50.956;4.242;2023-07-31T09:40:36;5.43;;;3.77;;
13147;SDS011;6639;50.956;4.242;2023-07-31T09:43:05;3.50;;;3.10;;
13147;SDS011;6639;50.956;4.242;2023-07-31T09:45:34;4.07;;;3.03;;
13147;SDS011;6639;50.956;4.242;2023-07-31T09:48:02;5.78;;;3.70;;
13147;SDS011;6639;50.956;4.242;2023-07-31T09:50:29;5.28;;;3.13;;
13147;SDS011;6639;50.956;4.242;2023-07-31T09:52:56;5.18;;;3.22;;
13147;SDS011;6639;50.956;4.242;2023-07-31T09:55:23;4.30;;;2.90;;
13147;SDS011;6639;50.956;4.242;2023-07-31T09:57:52;4.78;;;3.05;;
13147;SDS011;6639;50.956;4.242;2023-07-31T10:00:22;6.20;;;4.10;;
13147;SDS011;6639;50.956;4.242;2023-07-31T10:02:50;4.82;;;3.25;;
13147;SDS011;6639;50.956;4.242;2023-07-31T10:05:19;8.80;;;3.40;;
13147;SDS011;6639;50.956;4.242;2023-07-31T10:07:49;5.55;;;3.60;;
13147;SDS011;6639;50.956;4.242;2023-07-31T10:10:19;5.95;;;3.58;;
13147;SDS011;6639;50.956;4.242;2023-07-31T10:12:48;3.70;;;3.28;;
13147;SDS011;6639;50.956;4.242;2023-07-31T10:15:16;4.10;;;3.70;;
13147;SDS011;6639;50.956;4.242;2023-07-31T10:17:44;6.07;;;3.92;;
13147;SDS011;6639;50.956;4.242;2023-07-31T10:20:13;5.40;;;4.18;;
13147;SDS011;6639;50.956;4.242;2023-07-31T10:22:42;6.47;;;3.85;;
13147;SDS011;6639;50.956;4.242;2023-07-31T10:25:11;5.20;;;3.63;;
13147;SDS011;6639;50.956;4.242;2023-07-31T10:27:38;5.07;;;3.92;;
13147;SDS011;6639;50.956;4.242;2023-07-31T10:30:06;5.03;;;3.65;;
13147;SDS011;6639;50.956;4.242;2023-07-31T10:32:36;4.82;;;3.65;;
13147;SDS011;6639;50.956;4.242;2023-07-31T10:35:05;5.82;;;4.28;;
13147;SDS011;6639;50.956;4.242;2023-07-31T10:37:36;6.78;;;4.45;;
13147;SDS011;6639;50.956;4.242;2023-07-31T10:40:04;6.70;;;4.10;;
13147;SDS011;6639;50.956;4.242;2023-07-31T10:42:33;7.55;;;4.28;;
13147;SDS011;6639;50.956;4.242;2023-07-31T10:45:02;5.53;;;3.92;;
13147;SDS011;6639;50.956;4.242;2023-07-31T10:47:31;4.75;;;4.30;;
13147;SDS011;6639;50.956;4.242;2023-07-31T10:50:18;7.20;;;4.38;;
13147;SDS011;6639;50.956;4.242;2023-07-31T10:52:47;6.75;;;3.97;;
13147;SDS011;6639;50.956;4.242;2023-07-31T10:55:15;5.20;;;3.85;;
13147;SDS011;6639;50.956;4.242;2023-07-31T10:57:49;5.97;;;3.97;;
13147;SDS011;6639;50.956;4.242;2023-07-31T11:00:20;4.88;;;4.03;;
13147;SDS011;6639;50.956;4.242;2023-07-31T11:03:00;5.57;;;4.25;;
13147;SDS011;6639;50.956;4.242;2023-07-31T11:05:41;7.10;;;4.57;;
13147;SDS011;6639;50.956;4.242;2023-07-31T11:08:12;5.97;;;3.90;;
13147;SDS011;6639;50.956;4.242;2023-07-31T11:10:40;5.30;;;3.95;;
13147;SDS011;6639;50.956;4.242;2023-07-31T11:13:08;5.90;;;4.35;;
13147;SDS011;6639;50.956;4.242;2023-07-31T11:15:34;5.93;;;4.10;;
13147;SDS011;6639;50.956;4.242;2023-07-31T11:18:03;7.63;;;3.97;;
13147;SDS011;6639;50.956;4.242;2023-07-31T11:20:31;7.55;;;4.15;;
13147;SDS011;6639;50.956;4.242;2023-07-31T11:22:59;5.30;;;4.38;;
13147;SDS011;6639;50.956;4.242;2023-07-31T11:25:28;5.22;;;4.50;;
13147;SDS011;6639;50.956;4.242;2023-07-31T11:27:56;7.93;;;4.43;;
13147;SDS011;6639;50.956;4.242;2023-07-31T11:30:23;7.95;;;4.50;;
13147;SDS011;6639;50.956;4.242;2023-07-31T11:32:50;5.65;;;3.85;;
13147;SDS011;6639;50.956;4.242;2023-07-31T11:35:19;7.43;;;4.10;;
13147;SDS011;6639;50.956;4.242;2023-07-31T11:37:45;5.28;;;4.15;;
13147;SDS011;6639;50.956;4.242;2023-07-31T11:40:13;5.90;;;4.43;;
13147;SDS011;6639;50.956;4.242;2023-07-31T11:42:40;6.90;;;4.30;;
13147;SDS011;6639;50.956;4.242;2023-07-31T11:45:08;7.03;;;4.30;;
13147;SDS011;6639;50.956;4.242;2023-07-31T11:47:36;4.70;;;4.00;;
13147;SDS011;6639;50.956;4.242;2023-07-31T11:50:04;5.30;;;4.10;;
13147;SDS011;6639;50.956;4.242;2023-07-31T11:52:35;6.68;;;4.30;;
13147;SDS011;6639;50.956;4.242;2023-07-31T11:55:05;7.90;;;4.18;;
13147;SDS011;6639;50.956;4.242;2023-07-31T11:57:35;5.88;;;4.28;;
13147;SDS011;6639;50.956;4.242;2023-07-31T12:00:04;6.72;;;5.00;;
13147;SDS011;6639;50.956;4.242;2023-07-31T12:02:33;8.13;;;5.35;;
13147;SDS011;6639;50.956;4.242;2023-07-31T12:05:00;7.35;;;4.72;;
13147;SDS011;6639;50.956;4.242;2023-07-31T12:10:21;7.45;;;4.63;;
13147;SDS011;6639;50.956;4.242;2023-07-31T12:12:56;5.10;;;4.10;;
13147;SDS011;6639;50.956;4.242;2023-07-31T12:15:32;8.18;;;4.25;;
13147;SDS011;6639;50.956;4.242;2023-07-31T12:18:00;7.85;;;4.30;;
13147;SDS011;6639;50.956;4.242;2023-07-31T12:20:30;5.57;;;3.90;;
13147;SDS011;6639;50.956;4.242;2023-07-31T12:22:59;12.35;;;4.95;;
13147;SDS011;6639;50.956;4.242;2023-07-31T12:25:30;4.57;;;3.78;;
13147;SDS011;6639;50.956;4.242;2023-07-31T12:27:58;11.73;;;4.03;;
13147;SDS011;6639;50.956;4.242;2023-07-31T12:30:31;4.95;;;4.32;;
13147;SDS011;6639;50.956;4.242;2023-07-31T12:33:02;6.50;;;3.85;;
13147;SDS011;6639;50.956;4.242;2023-07-31T12:35:34;6.35;;;4.32;;
13147;SDS011;6639;50.956;4.242;2023-07-31T12:38:03;7.90;;;3.55;;
13147;SDS011;6639;50.956;4.242;2023-07-31T12:40:30;6.97;;;4.22;;
13147;SDS011;6639;50.956;4.242;2023-07-31T12:42:57;7.75;;;4.43;;
13147;SDS011;6639;50.956;4.242;2023-07-31T12:45:26;5.55;;;4.15;;
13147;SDS011;6639;50.956;4.242;2023-07-31T12:47:53;6.85;;;4.25;;
13147;SDS011;6639;50.956;4.242;2023-07-31T12:50:20;5.88;;;4.40;;
13147;SDS011;6639;50.956;4.242;2023-07-31T12:52:48;7.78;;;4.03;;
13147;SDS011;6639;50.956;4.242;2023-07-31T12:55:16;6.32;;;3.92;;
13147;SDS011;6639;50.956;4.242;2023-07-31T12:57:44;8.55;;;4.72;;
13147;SDS011;6639;50.956;4.242;2023-07-31T13:00:11;5.72;;;4.13;;
13147;SDS011;6639;50.956;4.242;2023-07-31T13:02:39;6.00;;;4.40;;
13147;SDS011;6639;50.956;4.242;2023-07-31T13:05:06;5.75;;;3.88;;
13147;SDS011;6639;50.956;4.242;2023-07-31T13:07:33;5.97;;;4.05;;
13147;SDS011;6639;50.956;4.242;2023-07-31T13:10:00;7.65;;;4.30;;
13147;SDS011;6639;50.956;4.242;2023-07-31T13:12:29;4.30;;;3.55;;
13147;SDS011;6639;50.956;4.242;2023-07-31T13:14:56;7.70;;;4.22;;
13147;SDS011;6639;50.956;4.242;2023-07-31T13:17:23;3.60;;;2.75;;
13147;SDS011;6639;50.956;4.242;2023-07-31T13:19:49;4.57;;;2.95;;
13147;SDS011;6639;50.956;4.242;2023-07-31T13:22:16;4.72;;;2.90;;
13147;SDS011;6639;50.956;4.242;2023-07-31T13:24:43;4.25;;;3.03;;
13147;SDS011;6639;50.956;4.242;2023-07-31T13:27:10;3.63;;;2.78;;
13147;SDS011;6639;50.956;4.242;2023-07-31T13:29:38;3.60;;;2.30;;
13147;SDS011;6639;50.956;4.242;2023-07-31T13:32:05;6.50;;;3.10;;
13147;SDS011;6639;50.956;4.242;2023-07-31T13:34:32;3.50;;;3.00;;
13147;SDS011;6639;50.956;4.242;2023-07-31T13:36:59;2.72;;;2.50;;
13147;SDS011;6639;50.956;4.242;2023-07-31T13:39:26;3.78;;;2.38;;
13147;SDS011;6639;50.956;4.242;2023-07-31T13:41:53;5.03;;;2.35;;
13147;SDS011;6639;50.956;4.242;2023-07-31T13:44:20;2.35;;;2.15;;
13147;SDS011;6639;50.956;4.242;2023-07-31T13:46:48;2.78;;;2.47;;
13147;SDS011;6639;50.956;4.242;2023-07-31T13:49:15;2.58;;;2.38;;
13147;SDS011;6639;50.956;4.242;2023-07-31T13:51:42;3.00;;;2.55;;
13147;SDS011;6639;50.956;4.242;2023-07-31T13:54:09;3.08;;;2.30;;
13147;SDS011;6639;50.956;4.242;2023-07-31T13:56:36;2.97;;;2.47;;
13147;SDS011;6639;50.956;4.242;2023-07-31T13:59:04;3.53;;;2.53;;
13147;SDS011;6639;50.956;4.242;2023-07-31T14:01:31;2.72;;;2.53;;
13147;SDS011;6639;50.956;4.242;2023-07-31T14:03:59;2.95;;;2.75;;
13147;SDS011;6639;50.956;4.242;2023-07-31T14:06:26;3.33;;;2.67;;
13147;SDS011;6639;50.956;4.242;2023-07-31T14:08:53;3.33;;;3.00;;
13147;SDS011;6639;50.956;4.242;2023-07-31T14:11:20;3.17;;;2.40;;
13147;SDS011;6639;50.956;4.242;2023-07-31T14:13:47;5.43;;;3.25;;
13147;SDS011;6639;50.956;4.242;2023-07-31T14:16:16;4.68;;;3.60;;
13147;SDS011;6639;50.956;4.242;2023-07-31T14:18:43;4.35;;;3.45;;
13147;SDS011;6639;50.956;4.242;2023-07-31T14:21:12;8.35;;;4.20;;
13147;SDS011;6639;50.956;4.242;2023-07-31T14:23:39;4.43;;;3.22;;
13147;SDS011;6639;50.956;4.242;2023-07-31T14:26:06;4.95;;;3.67;;
13147;SDS011;6639;50.956;4.242;2023-07-31T14:28:33;4.50;;;2.90;;
13147;SDS011;6639;50.956;4.242;2023-07-31T14:31:00;4.60;;;3.38;;
13147;SDS011;6639;50.956;4.242;2023-07-31T14:33:27;4.53;;;3.40;;
13147;SDS011;6639;50.956;4.242;2023-07-31T14:35:54;4.15;;;3.15;;
13147;SDS011;6639;50.956;4.242;2023-07-31T14:38:22;3.97;;;3.03;;
13147;SDS011;6639;50.956;4.242;2023-07-31T14:40:49;4.03;;;3.58;;
13147;SDS011;6639;50.956;4.242;2023-07-31T14:43:16;2.90;;;2.50;;
13147;SDS011;6639;50.956;4.242;2023-07-31T14:45:43;5.30;;;2.80;;
13147;SDS011;6639;50.956;4.242;2023-07-31T14:48:11;3.53;;;2.35;;
13147;SDS011;6639;50.956;4.242;2023-07-31T14:50:38;4.38;;;2.95;;
13147;SDS011;6639;50.956;4.242;2023-07-31T14:53:05;3.42;;;2.15;;
13147;SDS011;6639;50.956;4.242;2023-07-31T14:55:33;3.30;;;2.33;;
13147;SDS011;6639;50.956;4.242;2023-07-31T14:58:00;2.92;;;2.33;;
13147;SDS011;6639;50.956;4.242;2023-07-31T15:00:28;2.67;;;2.33;;
13147;SDS011;6639;50.956;4.242;2023-07-31T15:02:55;2.60;;;2.33;;
13147;SDS011;6639;50.956;4.242;2023-07-31T15:05:22;3.65;;;2.20;;
13147;SDS011;6639;50.956;4.242;2023-07-31T15:07:48;2.20;;;2.00;;
13147;SDS011;6639;50.956;4.242;2023-07-31T15:10:15;3.95;;;2.10;;